KPDT/PDT METAR and TAF weather

Enter ICAO airport designator
Station Type Date Time Source
KPDT METAR 2019/06/27 09:53 UTC NOAA

KPDT 270953Z AUTO 22005KT 10SM BKN110 12/08 A2996 RMK AO2 SLP138 T01170078


Station Type Date Time Source
KPDT Decoded METAR 2019/06/27 09:53 UTC NOAA

PENDLETON MUNICIPAL AIRPORT, OR, United States (KPDT) 45-70N 118-83W 458M
Jun 27, 2019 - 05:53 AM EDT / 2019.06.27 0953 UTC
Wind: from the SW (220 degrees) at 6 MPH (5 KT):0
Visibility: 10 mile(s):0
Sky conditions: mostly cloudy
Temperature: 53.1 F (11.7 C)
Dew Point: 46.0 F (7.8 C)
Relative Humidity: 76%
Pressure (altimeter): 29.96 in. Hg (1014 hPa)
ob: KPDT 270953Z AUTO 22005KT 10SM BKN110 12/08 A2996 RMK AO2 SLP138 T01170078
cycle: 10

Station Type Date Time Source
KPDT TAF 2019/06/27 06:36 UTC NOAA

TAF
AMD KPDT 270535Z 2706/2806 21007KT P6SM VCSH SCT050 BKN070
FM270900 24007KT P6SM VCSH SCT060 BKN080
FM271200 18005KT P6SM SCT080 BKN250
FM272000 27010KT P6SM SCT070 BKN090
FM280300 21006KT P6SM SCT100 BKN250

Example: see airport list